sensor_id;sensor_type;location;lat;lon;timestamp;P1;durP1;ratioP1;P2;durP2;ratioP2
20814;SDS011;10568;48.176;16.316;2023-04-29T00:02:03;11.07;;;6.23;;
20814;SDS011;10568;48.176;16.316;2023-04-29T00:04:29;7.63;;;5.53;;
20814;SDS011;10568;48.176;16.316;2023-04-29T00:06:55;7.67;;;5.63;;
20814;SDS011;10568;48.176;16.316;2023-04-29T00:09:21;7.50;;;5.60;;
20814;SDS011;10568;48.176;16.316;2023-04-29T00:11:46;12.03;;;5.10;;
20814;SDS011;10568;48.176;16.316;2023-04-29T00:14:14;9.23;;;6.10;;
20814;SDS011;10568;48.176;16.316;2023-04-29T00:16:40;7.50;;;5.57;;
20814;SDS011;10568;48.176;16.316;2023-04-29T00:19:06;7.23;;;5.40;;
20814;SDS011;10568;48.176;16.316;2023-04-29T00:21:32;7.23;;;5.27;;
20814;SDS011;10568;48.176;16.316;2023-04-29T00:23:57;8.67;;;6.03;;
20814;SDS011;10568;48.176;16.316;2023-04-29T00:26:24;9.00;;;5.40;;
20814;SDS011;10568;48.176;16.316;2023-04-29T00:28:50;8.17;;;5.77;;
20814;SDS011;10568;48.176;16.316;2023-04-29T00:31:15;9.17;;;6.40;;
20814;SDS011;10568;48.176;16.316;2023-04-29T00:33:41;8.43;;;5.80;;
20814;SDS011;10568;48.176;16.316;2023-04-29T00:36:07;10.30;;;5.50;;
20814;SDS011;10568;48.176;16.316;2023-04-29T00:38:33;8.73;;;6.13;;
20814;SDS011;10568;48.176;16.316;2023-04-29T00:40:59;8.77;;;5.73;;
20814;SDS011;10568;48.176;16.316;2023-04-29T00:43:25;7.13;;;5.63;;
20814;SDS011;10568;48.176;16.316;2023-04-29T00:45:51;10.07;;;5.90;;
20814;SDS011;10568;48.176;16.316;2023-04-29T00:48:18;9.73;;;6.07;;
20814;SDS011;10568;48.176;16.316;2023-04-29T00:50:44;7.53;;;5.87;;
20814;SDS011;10568;48.176;16.316;2023-04-29T00:53:10;7.77;;;5.70;;
20814;SDS011;10568;48.176;16.316;2023-04-29T00:55:39;8.60;;;6.40;;
20814;SDS011;10568;48.176;16.316;2023-04-29T00:58:06;7.57;;;6.00;;
20814;SDS011;10568;48.176;16.316;2023-04-29T01:00:34;9.03;;;6.27;;
20814;SDS011;10568;48.176;16.316;2023-04-29T01:03:01;10.83;;;6.00;;
20814;SDS011;10568;48.176;16.316;2023-04-29T01:05:28;7.47;;;5.27;;
20814;SDS011;10568;48.176;16.316;2023-04-29T01:07:55;10.13;;;6.17;;
20814;SDS011;10568;48.176;16.316;2023-04-29T01:10:30;7.97;;;5.93;;
20814;SDS011;10568;48.176;16.316;2023-04-29T01:13:06;8.87;;;6.40;;
20814;SDS011;10568;48.176;16.316;2023-04-29T01:18:21;10.33;;;7.03;;
20814;SDS011;10568;48.176;16.316;2023-04-29T01:20:52;10.53;;;7.20;;
20814;SDS011;10568;48.176;16.316;2023-04-29T01:23:18;9.40;;;6.53;;
20814;SDS011;10568;48.176;16.316;2023-04-29T01:25:44;11.00;;;7.00;;
20814;SDS011;10568;48.176;16.316;2023-04-29T01:28:17;9.57;;;5.87;;
20814;SDS011;10568;48.176;16.316;2023-04-29T01:44:41;13.50;;;8.67;;
20814;SDS011;10568;48.176;16.316;2023-04-29T01:47:09;13.83;;;9.50;;
20814;SDS011;10568;48.176;16.316;2023-04-29T01:49:38;10.83;;;8.00;;
20814;SDS011;10568;48.176;16.316;2023-04-29T01:52:04;12.43;;;8.80;;
20814;SDS011;10568;48.176;16.316;2023-04-29T01:54:31;15.13;;;9.17;;
20814;SDS011;10568;48.176;16.316;2023-04-29T01:57:00;12.17;;;7.87;;
20814;SDS011;10568;48.176;16.316;2023-04-29T01:59:27;13.43;;;10.03;;
20814;SDS011;10568;48.176;16.316;2023-04-29T02:01:53;13.40;;;9.37;;
20814;SDS011;10568;48.176;16.316;2023-04-29T02:04:20;12.67;;;8.33;;
20814;SDS011;10568;48.176;16.316;2023-04-29T02:06:46;13.87;;;10.00;;
20814;SDS011;10568;48.176;16.316;2023-04-29T02:09:12;16.47;;;10.10;;
20814;SDS011;10568;48.176;16.316;2023-04-29T02:11:37;14.13;;;10.33;;
20814;SDS011;10568;48.176;16.316;2023-04-29T02:14:03;15.97;;;10.40;;
20814;SDS011;10568;48.176;16.316;2023-04-29T02:16:29;17.33;;;10.60;;
20814;SDS011;10568;48.176;16.316;2023-04-29T02:21:58;14.53;;;9.17;;
20814;SDS011;10568;48.176;16.316;2023-04-29T02:24:24;15.27;;;9.90;;
20814;SDS011;10568;48.176;16.316;2023-04-29T02:26:49;16.77;;;10.27;;
20814;SDS011;10568;48.176;16.316;2023-04-29T02:29:15;16.40;;;10.40;;
20814;SDS011;10568;48.176;16.316;2023-04-29T02:31:41;13.57;;;8.60;;
20814;SDS011;10568;48.176;16.316;2023-04-29T02:34:07;16.03;;;10.83;;
20814;SDS011;10568;48.176;16.316;2023-04-29T02:36:32;16.87;;;10.63;;
20814;SDS011;10568;48.176;16.316;2023-04-29T02:38:58;13.63;;;9.17;;
20814;SDS011;10568;48.176;16.316;2023-04-29T02:41:24;11.30;;;7.37;;
20814;SDS011;10568;48.176;16.316;2023-04-29T02:43:50;14.47;;;9.77;;
20814;SDS011;10568;48.176;16.316;2023-04-29T02:46:16;14.23;;;8.77;;
20814;SDS011;10568;48.176;16.316;2023-04-29T02:48:43;9.33;;;6.93;;
20814;SDS011;10568;48.176;16.316;2023-04-29T02:51:09;13.43;;;8.50;;
20814;SDS011;10568;48.176;16.316;2023-04-29T02:53:35;16.13;;;10.40;;
20814;SDS011;10568;48.176;16.316;2023-04-29T02:56:01;18.80;;;10.30;;
20814;SDS011;10568;48.176;16.316;2023-04-29T02:58:27;20.50;;;12.17;;
20814;SDS011;10568;48.176;16.316;2023-04-29T03:00:52;14.73;;;9.93;;
20814;SDS011;10568;48.176;16.316;2023-04-29T03:03:18;16.47;;;10.47;;
20814;SDS011;10568;48.176;16.316;2023-04-29T03:05:44;16.83;;;11.03;;
20814;SDS011;10568;48.176;16.316;2023-04-29T03:08:10;18.07;;;11.37;;
20814;SDS011;10568;48.176;16.316;2023-04-29T03:10:35;19.20;;;10.80;;
20814;SDS011;10568;48.176;16.316;2023-04-29T03:13:01;22.63;;;12.47;;
20814;SDS011;10568;48.176;16.316;2023-04-29T03:15:27;18.47;;;10.47;;
20814;SDS011;10568;48.176;16.316;2023-04-29T03:17:53;19.63;;;12.83;;
20814;SDS011;10568;48.176;16.316;2023-04-29T03:20:20;19.50;;;12.43;;
20814;SDS011;10568;48.176;16.316;2023-04-29T03:22:45;19.57;;;12.33;;
20814;SDS011;10568;48.176;16.316;2023-04-29T03:25:11;20.87;;;12.37;;
20814;SDS011;10568;48.176;16.316;2023-04-29T03:27:37;19.23;;;11.93;;
20814;SDS011;10568;48.176;16.316;2023-04-29T03:30:04;18.43;;;11.87;;
20814;SDS011;10568;48.176;16.316;2023-04-29T03:32:31;20.53;;;12.00;;
20814;SDS011;10568;48.176;16.316;2023-04-29T03:34:56;19.23;;;12.30;;
20814;SDS011;10568;48.176;16.316;2023-04-29T03:37:22;17.93;;;10.97;;
20814;SDS011;10568;48.176;16.316;2023-04-29T03:39:48;25.97;;;13.13;;
20814;SDS011;10568;48.176;16.316;2023-04-29T03:42:14;15.00;;;9.87;;
20814;SDS011;10568;48.176;16.316;2023-04-29T03:44:40;23.33;;;13.30;;
20814;SDS011;10568;48.176;16.316;2023-04-29T03:47:06;23.00;;;13.23;;
20814;SDS011;10568;48.176;16.316;2023-04-29T03:49:32;19.00;;;12.10;;
20814;SDS011;10568;48.176;16.316;2023-04-29T03:51:58;20.30;;;12.60;;
20814;SDS011;10568;48.176;16.316;2023-04-29T03:54:24;19.40;;;12.17;;
20814;SDS011;10568;48.176;16.316;2023-04-29T03:56:50;20.20;;;12.97;;
20814;SDS011;10568;48.176;16.316;2023-04-29T03:59:15;16.93;;;11.27;;
20814;SDS011;10568;48.176;16.316;2023-04-29T04:01:41;15.50;;;10.57;;
20814;SDS011;10568;48.176;16.316;2023-04-29T04:04:07;17.50;;;11.53;;
20814;SDS011;10568;48.176;16.316;2023-04-29T04:06:33;12.07;;;9.43;;
20814;SDS011;10568;48.176;16.316;2023-04-29T04:08:59;17.80;;;10.23;;
20814;SDS011;10568;48.176;16.316;2023-04-29T04:11:25;12.87;;;8.83;;
20814;SDS011;10568;48.176;16.316;2023-04-29T04:13:51;11.83;;;9.33;;
20814;SDS011;10568;48.176;16.316;2023-04-29T04:16:17;17.07;;;10.50;;
20814;SDS011;10568;48.176;16.316;2023-04-29T04:18:42;15.60;;;10.20;;
20814;SDS011;10568;48.176;16.316;2023-04-29T04:21:09;14.47;;;10.40;;
20814;SDS011;10568;48.176;16.316;2023-04-29T04:23:35;13.10;;;8.93;;
20814;SDS011;10568;48.176;16.316;2023-04-29T04:26:06;13.43;;;9.67;;
20814;SDS011;10568;48.176;16.316;2023-04-29T04:28:32;14.47;;;9.63;;
20814;SDS011;10568;48.176;16.316;2023-04-29T04:30:58;14.63;;;9.40;;
20814;SDS011;10568;48.176;16.316;2023-04-29T04:33:24;12.27;;;8.80;;
20814;SDS011;10568;48.176;16.316;2023-04-29T04:35:51;13.27;;;9.10;;
20814;SDS011;10568;48.176;16.316;2023-04-29T04:38:17;12.63;;;8.97;;
20814;SDS011;10568;48.176;16.316;2023-04-29T04:40:43;10.13;;;7.77;;
20814;SDS011;10568;48.176;16.316;2023-04-29T04:43:09;11.93;;;8.27;;
20814;SDS011;10568;48.176;16.316;2023-04-29T04:45:35;12.33;;;7.90;;
20814;SDS011;10568;48.176;16.316;2023-04-29T04:48:01;11.53;;;7.60;;
20814;SDS011;10568;48.176;16.316;2023-04-29T04:50:28;12.30;;;8.23;;
20814;SDS011;10568;48.176;16.316;2023-04-29T04:52:54;11.60;;;8.43;;
20814;SDS011;10568;48.176;16.316;2023-04-29T04:55:21;10.63;;;7.53;;
20814;SDS011;10568;48.176;16.316;2023-04-29T04:57:47;12.00;;;7.80;;
20814;SDS011;10568;48.176;16.316;2023-04-29T05:00:14;10.50;;;7.50;;
20814;SDS011;10568;48.176;16.316;2023-04-29T05:02:39;11.43;;;8.73;;
20814;SDS011;10568;48.176;16.316;2023-04-29T05:05:05;9.87;;;6.70;;
20814;SDS011;10568;48.176;16.316;2023-04-29T05:07:32;12.77;;;7.90;;
20814;SDS011;10568;48.176;16.316;2023-04-29T05:10:02;10.03;;;6.97;;
20814;SDS011;10568;48.176;16.316;2023-04-29T05:12:28;9.00;;;6.67;;
20814;SDS011;10568;48.176;16.316;2023-04-29T05:14:56;12.27;;;7.83;;
20814;SDS011;10568;48.176;16.316;2023-04-29T05:17:22;11.77;;;7.83;;
20814;SDS011;10568;48.176;16.316;2023-04-29T05:19:48;11.67;;;7.90;;
20814;SDS011;10568;48.176;16.316;2023-04-29T05:22:15;13.93;;;8.83;;
20814;SDS011;10568;48.176;16.316;2023-04-29T05:24:40;14.23;;;9.60;;
20814;SDS011;10568;48.176;16.316;2023-04-29T05:27:06;13.33;;;9.03;;
20814;SDS011;10568;48.176;16.316;2023-04-29T05:29:32;14.27;;;10.20;;
20814;SDS011;10568;48.176;16.316;2023-04-29T05:31:58;15.37;;;10.00;;
20814;SDS011;10568;48.176;16.316;2023-04-29T05:34:24;16.27;;;10.70;;
20814;SDS011;10568;48.176;16.316;2023-04-29T05:36:50;13.50;;;9.30;;
20814;SDS011;10568;48.176;16.316;2023-04-29T05:39:16;13.80;;;9.43;;
20814;SDS011;10568;48.176;16.316;2023-04-29T05:41:42;14.07;;;8.83;;
20814;SDS011;10568;48.176;16.316;2023-04-29T05:44:08;15.83;;;10.33;;
20814;SDS011;10568;48.176;16.316;2023-04-29T05:46:34;13.57;;;9.30;;
20814;SDS011;10568;48.176;16.316;2023-04-29T05:49:00;12.73;;;8.90;;
20814;SDS011;10568;48.176;16.316;2023-04-29T05:51:26;11.10;;;8.50;;
20814;SDS011;10568;48.176;16.316;2023-04-29T05:53:52;10.80;;;6.73;;
20814;SDS011;10568;48.176;16.316;2023-04-29T05:56:19;12.17;;;8.07;;
20814;SDS011;10568;48.176;16.316;2023-04-29T05:58:46;12.57;;;7.67;;
20814;SDS011;10568;48.176;16.316;2023-04-29T06:01:12;9.93;;;7.03;;
20814;SDS011;10568;48.176;16.316;2023-04-29T06:03:38;9.23;;;6.50;;
20814;SDS011;10568;48.176;16.316;2023-04-29T06:06:03;11.47;;;7.60;;
20814;SDS011;10568;48.176;16.316;2023-04-29T06:08:29;9.60;;;6.40;;
20814;SDS011;10568;48.176;16.316;2023-04-29T06:10:55;9.93;;;6.93;;
20814;SDS011;10568;48.176;16.316;2023-04-29T06:13:21;11.97;;;6.93;;
20814;SDS011;10568;48.176;16.316;2023-04-29T06:15:46;9.20;;;6.00;;
20814;SDS011;10568;48.176;16.316;2023-04-29T06:18:13;8.43;;;5.93;;
20814;SDS011;10568;48.176;16.316;2023-04-29T06:20:39;10.30;;;6.50;;
20814;SDS011;10568;48.176;16.316;2023-04-29T06:23:04;10.37;;;7.33;;
20814;SDS011;10568;48.176;16.316;2023-04-29T06:25:31;8.77;;;6.60;;
20814;SDS011;10568;48.176;16.316;2023-04-29T06:27:57;9.90;;;7.00;;
20814;SDS011;10568;48.176;16.316;2023-04-29T06:30:22;10.43;;;7.27;;
20814;SDS011;10568;48.176;16.316;2023-04-29T06:32:48;8.57;;;7.00;;
20814;SDS011;10568;48.176;16.316;2023-04-29T06:35:14;10.20;;;7.20;;
20814;SDS011;10568;48.176;16.316;2023-04-29T06:37:40;8.80;;;6.53;;
20814;SDS011;10568;48.176;16.316;2023-04-29T06:40:06;7.93;;;6.43;;
20814;SDS011;10568;48.176;16.316;2023-04-29T06:42:32;9.73;;;7.20;;
20814;SDS011;10568;48.176;16.316;2023-04-29T06:44:58;13.20;;;7.60;;
20814;SDS011;10568;48.176;16.316;2023-04-29T06:47:24;9.80;;;7.57;;
20814;SDS011;10568;48.176;16.316;2023-04-29T06:49:50;8.77;;;6.83;;
20814;SDS011;10568;48.176;16.316;2023-04-29T06:52:17;10.83;;;7.43;;
20814;SDS011;10568;48.176;16.316;2023-04-29T06:54:43;10.57;;;7.17;;
20814;SDS011;10568;48.176;16.316;2023-04-29T06:57:09;10.07;;;7.50;;
20814;SDS011;10568;48.176;16.316;2023-04-29T06:59:35;10.00;;;7.53;;
20814;SDS011;10568;48.176;16.316;2023-04-29T07:02:01;9.87;;;7.33;;
20814;SDS011;10568;48.176;16.316;2023-04-29T07:04:26;10.23;;;7.30;;
20814;SDS011;10568;48.176;16.316;2023-04-29T07:06:52;12.93;;;7.67;;
20814;SDS011;10568;48.176;16.316;2023-04-29T07:09:19;9.70;;;7.23;;
20814;SDS011;10568;48.176;16.316;2023-04-29T07:11:47;7.83;;;6.30;;
20814;SDS011;10568;48.176;16.316;2023-04-29T07:14:13;8.83;;;6.80;;
20814;SDS011;10568;48.176;16.316;2023-04-29T07:16:41;8.90;;;6.73;;
20814;SDS011;10568;48.176;16.316;2023-04-29T07:19:07;9.73;;;6.57;;
20814;SDS011;10568;48.176;16.316;2023-04-29T07:21:33;8.53;;;6.03;;
20814;SDS011;10568;48.176;16.316;2023-04-29T07:23:58;7.77;;;6.13;;
20814;SDS011;10568;48.176;16.316;2023-04-29T07:26:26;6.67;;;5.33;;
20814;SDS011;10568;48.176;16.316;2023-04-29T07:28:52;8.47;;;4.93;;
20814;SDS011;10568;48.176;16.316;2023-04-29T07:31:18;6.13;;;4.57;;
20814;SDS011;10568;48.176;16.316;2023-04-29T07:33:45;5.93;;;4.70;;
20814;SDS011;10568;48.176;16.316;2023-04-29T07:36:11;6.43;;;4.23;;
20814;SDS011;10568;48.176;16.316;2023-04-29T07:38:37;5.93;;;4.97;;
20814;SDS011;10568;48.176;16.316;2023-04-29T07:41:03;5.97;;;4.70;;
20814;SDS011;10568;48.176;16.316;2023-04-29T07:43:29;5.53;;;4.47;;
20814;SDS011;10568;48.176;16.316;2023-04-29T07:45:55;5.40;;;4.50;;
20814;SDS011;10568;48.176;16.316;2023-04-29T07:48:20;6.70;;;4.10;;
20814;SDS011;10568;48.176;16.316;2023-04-29T07:50:46;5.67;;;4.43;;
20814;SDS011;10568;48.176;16.316;2023-04-29T07:53:12;5.70;;;4.07;;
20814;SDS011;10568;48.176;16.316;2023-04-29T07:55:40;6.20;;;4.10;;
20814;SDS011;10568;48.176;16.316;2023-04-29T07:58:06;5.32;;;4.18;;
20814;SDS011;10568;48.176;16.316;2023-04-29T08:00:32;5.37;;;3.87;;
20814;SDS011;10568;48.176;16.316;2023-04-29T08:02:58;4.93;;;4.20;;
20814;SDS011;10568;48.176;16.316;2023-04-29T08:05:25;5.43;;;4.10;;
20814;SDS011;10568;48.176;16.316;2023-04-29T08:07:51;4.15;;;3.50;;
20814;SDS011;10568;48.176;16.316;2023-04-29T08:10:17;4.53;;;3.08;;
20814;SDS011;10568;48.176;16.316;2023-04-29T08:12:47;4.60;;;3.50;;
20814;SDS011;10568;48.176;16.316;2023-04-29T08:15:18;3.70;;;3.30;;
20814;SDS011;10568;48.176;16.316;2023-04-29T08:17:44;7.10;;;3.83;;
20814;SDS011;10568;48.176;16.316;2023-04-29T08:20:11;3.70;;;3.13;;
20814;SDS011;10568;48.176;16.316;2023-04-29T08:22:37;4.70;;;3.08;;
20814;SDS011;10568;48.176;16.316;2023-04-29T08:25:03;4.43;;;3.20;;
20814;SDS011;10568;48.176;16.316;2023-04-29T08:27:30;3.65;;;3.00;;
20814;SDS011;10568;48.176;16.316;2023-04-29T08:29:56;5.15;;;3.08;;
20814;SDS011;10568;48.176;16.316;2023-04-29T08:32:22;3.95;;;2.95;;
20814;SDS011;10568;48.176;16.316;2023-04-29T08:34:49;2.80;;;2.22;;
20814;SDS011;10568;48.176;16.316;2023-04-29T08:37:17;2.67;;;2.00;;
20814;SDS011;10568;48.176;16.316;2023-04-29T08:39:45;2.90;;;2.38;;
20814;SDS011;10568;48.176;16.316;2023-04-29T08:42:12;2.75;;;2.10;;
20814;SDS011;10568;48.176;16.316;2023-04-29T08:44:39;4.15;;;2.42;;
20814;SDS011;10568;48.176;16.316;2023-04-29T08:50:28;2.92;;;2.40;;
20814;SDS011;10568;48.176;16.316;2023-04-29T08:52:55;2.28;;;2.00;;
20814;SDS011;10568;48.176;16.316;2023-04-29T08:55:21;2.83;;;2.10;;
20814;SDS011;10568;48.176;16.316;2023-04-29T08:57:49;2.55;;;1.80;;
20814;SDS011;10568;48.176;16.316;2023-04-29T09:00:15;2.65;;;2.10;;
20814;SDS011;10568;48.176;16.316;2023-04-29T09:02:44;3.00;;;2.33;;
20814;SDS011;10568;48.176;16.316;2023-04-29T09:05:14;3.17;;;2.30;;
20814;SDS011;10568;48.176;16.316;2023-04-29T09:07:40;3.90;;;2.80;;
20814;SDS011;10568;48.176;16.316;2023-04-29T09:10:08;3.63;;;2.35;;
20814;SDS011;10568;48.176;16.316;2023-04-29T09:12:34;4.35;;;2.65;;
20814;SDS011;10568;48.176;16.316;2023-04-29T09:15:00;3.92;;;3.00;;
20814;SDS011;10568;48.176;16.316;2023-04-29T09:17:40;1.57;;;1.43;;
20814;SDS011;10568;48.176;16.316;2023-04-29T09:25:21;0.83;;;0.57;;
20814;SDS011;10568;48.176;16.316;2023-04-29T09:27:48;0.70;;;0.50;;
20814;SDS011;10568;48.176;16.316;2023-04-29T09:30:14;1.70;;;0.40;;
20814;SDS011;10568;48.176;16.316;2023-04-29T09:32:44;0.50;;;0.40;;
20814;SDS011;10568;48.176;16.316;2023-04-29T09:35:21;0.50;;;0.40;;
20814;SDS011;10568;48.176;16.316;2023-04-29T09:37:52;0.27;;;0.27;;
20814;SDS011;10568;48.176;16.316;2023-04-29T09:40:32;0.23;;;0.23;;
20814;SDS011;10568;48.176;16.316;2023-04-29T09:42:58;1.80;;;0.40;;
20814;SDS011;10568;48.176;16.316;2023-04-29T09:45:34;0.10;;;0.10;;
20814;SDS011;10568;48.176;16.316;2023-04-29T09:48:06;0.30;;;0.30;;
20814;SDS011;10568;48.176;16.316;2023-04-29T09:50:35;0.33;;;0.30;;
20814;SDS011;10568;48.176;16.316;2023-04-29T09:53:03;1.30;;;0.37;;
20814;SDS011;10568;48.176;16.316;2023-04-29T09:55:30;0.30;;;0.20;;
20814;SDS011;10568;48.176;16.316;2023-04-29T09:57:56;0.57;;;0.30;;
20814;SDS011;10568;48.176;16.316;2023-04-29T10:00:23;0.50;;;0.40;;
20814;SDS011;10568;48.176;16.316;2023-04-29T10:02:52;1.35;;;0.40;;
20814;SDS011;10568;48.176;16.316;2023-04-29T10:05:21;0.30;;;0.30;;
20814;SDS011;10568;48.176;16.316;2023-04-29T10:07:47;0.30;;;0.30;;
20814;SDS011;10568;48.176;16.316;2023-04-29T10:10:15;0.30;;;0.30;;
20814;SDS011;10568;48.176;16.316;2023-04-29T10:12:42;0.40;;;0.40;;
20814;SDS011;10568;48.176;16.316;2023-04-29T10:15:26;1.50;;;0.35;;
20814;SDS011;10568;48.176;16.316;2023-04-29T10:20:44;0.50;;;0.32;;
20814;SDS011;10568;48.176;16.316;2023-04-29T10:23:13;0.50;;;0.40;;
20814;SDS011;10568;48.176;16.316;2023-04-29T10:25:43;0.43;;;0.40;;
20814;SDS011;10568;48.176;16.316;2023-04-29T10:28:13;0.75;;;0.45;;
20814;SDS011;10568;48.176;16.316;2023-04-29T10:30:42;0.88;;;0.40;;
20814;SDS011;10568;48.176;16.316;2023-04-29T10:33:10;0.57;;;0.50;;
20814;SDS011;10568;48.176;16.316;2023-04-29T10:35:41;0.50;;;0.50;;
20814;SDS011;10568;48.176;16.316;2023-04-29T10:38:23;0.50;;;0.30;;
20814;SDS011;10568;48.176;16.316;2023-04-29T10:41:01;0.57;;;0.45;;
20814;SDS011;10568;48.176;16.316;2023-04-29T10:43:32;0.30;;;0.30;;
20814;SDS011;10568;48.176;16.316;2023-04-29T10:46:17;0.43;;;0.40;;
20814;SDS011;10568;48.176;16.316;2023-04-29T10:48:44;0.68;;;0.32;;
20814;SDS011;10568;48.176;16.316;2023-04-29T10:51:11;0.40;;;0.30;;
20814;SDS011;10568;48.176;16.316;2023-04-29T10:53:57;0.80;;;0.40;;
20814;SDS011;10568;48.176;16.316;2023-04-29T10:56:43;1.17;;;0.40;;
20814;SDS011;10568;48.176;16.316;2023-04-29T11:00:02;1.10;;;0.30;;
20814;SDS011;10568;48.176;16.316;2023-04-29T11:02:01;1.23;;;0.40;;
20814;SDS011;10568;48.176;16.316;2023-04-29T11:04:26;0.38;;;0.38;;
20814;SDS011;10568;48.176;16.316;2023-04-29T11:06:56;0.40;;;0.40;;
20814;SDS011;10568;48.176;16.316;2023-04-29T11:11:56;0.65;;;0.65;;
20814;SDS011;10568;48.176;16.316;2023-04-29T11:16:58;3.50;;;2.60;;
20814;SDS011;10568;48.176;16.316;2023-04-29T11:19:32;4.60;;;2.53;;
20814;SDS011;10568;48.176;16.316;2023-04-29T11:22:42;3.92;;;3.22;;
20814;SDS011;10568;48.176;16.316;2023-04-29T11:25:02;3.63;;;2.75;;
20814;SDS011;10568;48.176;16.316;2023-04-29T11:27:31;3.95;;;3.50;;
20814;SDS011;10568;48.176;16.316;2023-04-29T11:29:58;4.20;;;2.90;;
20814;SDS011;10568;48.176;16.316;2023-04-29T11:32:26;2.97;;;2.60;;
20814;SDS011;10568;48.176;16.316;2023-04-29T11:34:53;3.42;;;2.50;;
20814;SDS011;10568;48.176;16.316;2023-04-29T11:37:22;3.80;;;2.78;;
20814;SDS011;10568;48.176;16.316;2023-04-29T11:39:50;3.35;;;2.83;;
20814;SDS011;10568;48.176;16.316;2023-04-29T11:42:22;3.30;;;3.00;;
20814;SDS011;10568;48.176;16.316;2023-04-29T11:44:50;4.95;;;3.45;;
20814;SDS011;10568;48.176;16.316;2023-04-29T11:47:17;4.05;;;2.83;;
20814;SDS011;10568;48.176;16.316;2023-04-29T11:49:43;5.53;;;3.20;;
20814;SDS011;10568;48.176;16.316;2023-04-29T11:52:09;5.18;;;2.70;;
20814;SDS011;10568;48.176;16.316;2023-04-29T11:54:35;3.58;;;2.97;;
20814;SDS011;10568;48.176;16.316;2023-04-29T11:57:01;3.95;;;2.80;;
20814;SDS011;10568;48.176;16.316;2023-04-29T11:59:30;3.22;;;2.50;;
20814;SDS011;10568;48.176;16.316;2023-04-29T12:01:57;3.17;;;2.60;;
20814;SDS011;10568;48.176;16.316;2023-04-29T12:04:24;3.35;;;2.47;;
20814;SDS011;10568;48.176;16.316;2023-04-29T12:06:51;2.78;;;2.47;;
20814;SDS011;10568;48.176;16.316;2023-04-29T12:09:20;4.38;;;2.55;;
20814;SDS011;10568;48.176;16.316;2023-04-29T12:11:47;2.28;;;2.08;;
20814;SDS011;10568;48.176;16.316;2023-04-29T12:14:16;3.25;;;2.60;;
20814;SDS011;10568;48.176;16.316;2023-04-29T12:16:44;7.00;;;3.65;;
20814;SDS011;10568;48.176;16.316;2023-04-29T12:19:10;4.88;;;3.80;;
20814;SDS011;10568;48.176;16.316;2023-04-29T12:21:36;6.13;;;4.53;;
20814;SDS011;10568;48.176;16.316;2023-04-29T12:24:13;7.40;;;4.37;;
20814;SDS011;10568;48.176;16.316;2023-04-29T12:26:39;4.28;;;3.80;;
20814;SDS011;10568;48.176;16.316;2023-04-29T12:29:05;5.40;;;4.60;;
20814;SDS011;10568;48.176;16.316;2023-04-29T12:31:35;5.53;;;4.30;;
20814;SDS011;10568;48.176;16.316;2023-04-29T12:34:02;5.57;;;3.93;;
20814;SDS011;10568;48.176;16.316;2023-04-29T12:36:29;6.17;;;4.20;;
20814;SDS011;10568;48.176;16.316;2023-04-29T12:38:55;4.37;;;3.53;;
20814;SDS011;10568;48.176;16.316;2023-04-29T12:41:39;5.40;;;3.87;;
20814;SDS011;10568;48.176;16.316;2023-04-29T12:44:06;5.63;;;4.40;;
20814;SDS011;10568;48.176;16.316;2023-04-29T12:46:44;5.17;;;4.43;;
20814;SDS011;10568;48.176;16.316;2023-04-29T12:49:10;6.73;;;4.20;;
20814;SDS011;10568;48.176;16.316;2023-04-29T12:51:36;4.97;;;4.03;;
20814;SDS011;10568;48.176;16.316;2023-04-29T12:54:03;6.63;;;4.50;;
20814;SDS011;10568;48.176;16.316;2023-04-29T12:56:30;3.33;;;2.40;;
20814;SDS011;10568;48.176;16.316;2023-04-29T12:58:56;1.53;;;1.30;;
20814;SDS011;10568;48.176;16.316;2023-04-29T13:01:32;2.17;;;1.67;;
20814;SDS011;10568;48.176;16.316;2023-04-29T13:03:58;3.87;;;1.90;;
20814;SDS011;10568;48.176;16.316;2023-04-29T13:06:24;3.43;;;1.97;;
20814;SDS011;10568;48.176;16.316;2023-04-29T13:08:49;2.57;;;1.80;;
20814;SDS011;10568;48.176;16.316;2023-04-29T13:11:16;3.97;;;2.53;;
20814;SDS011;10568;48.176;16.316;2023-04-29T13:13:41;4.17;;;2.03;;
20814;SDS011;10568;48.176;16.316;2023-04-29T13:16:16;4.00;;;2.30;;
20814;SDS011;10568;48.176;16.316;2023-04-29T13:18:43;2.03;;;1.80;;
20814;SDS011;10568;48.176;16.316;2023-04-29T13:21:09;2.60;;;1.90;;
20814;SDS011;10568;48.176;16.316;2023-04-29T13:23:35;3.73;;;2.03;;
20814;SDS011;10568;48.176;16.316;2023-04-29T13:26:01;3.60;;;2.37;;
20814;SDS011;10568;48.176;16.316;2023-04-29T13:28:27;2.43;;;2.03;;
20814;SDS011;10568;48.176;16.316;2023-04-29T13:30:52;3.80;;;2.00;;
20814;SDS011;10568;48.176;16.316;2023-04-29T13:33:18;2.90;;;1.87;;
20814;SDS011;10568;48.176;16.316;2023-04-29T13:35:44;2.90;;;2.07;;
20814;SDS011;10568;48.176;16.316;2023-04-29T13:38:10;2.30;;;1.67;;
20814;SDS011;10568;48.176;16.316;2023-04-29T13:40:36;1.70;;;1.60;;
20814;SDS011;10568;48.176;16.316;2023-04-29T13:43:02;1.80;;;1.50;;
20814;SDS011;10568;48.176;16.316;2023-04-29T13:45:28;2.53;;;1.80;;
20814;SDS011;10568;48.176;16.316;2023-04-29T13:47:54;1.60;;;1.30;;
20814;SDS011;10568;48.176;16.316;2023-04-29T13:50:19;3.63;;;1.40;;
20814;SDS011;10568;48.176;16.316;2023-04-29T13:52:45;2.40;;;1.50;;
20814;SDS011;10568;48.176;16.316;2023-04-29T13:55:11;1.60;;;1.50;;
20814;SDS011;10568;48.176;16.316;2023-04-29T13:57:37;2.67;;;1.80;;
20814;SDS011;10568;48.176;16.316;2023-04-29T14:00:03;3.57;;;1.83;;
20814;SDS011;10568;48.176;16.316;2023-04-29T14:02:32;2.27;;;1.63;;
20814;SDS011;10568;48.176;16.316;2023-04-29T14:04:58;2.47;;;1.77;;
20814;SDS011;10568;48.176;16.316;2023-04-29T14:07:24;1.57;;;1.43;;
20814;SDS011;10568;48.176;16.316;2023-04-29T14:09:49;1.43;;;1.27;;
20814;SDS011;10568;48.176;16.316;2023-04-29T14:12:15;1.40;;;1.23;;
20814;SDS011;10568;48.176;16.316;2023-04-29T14:14:41;4.40;;;1.87;;
20814;SDS011;10568;48.176;16.316;2023-04-29T14:17:07;1.97;;;1.67;;
20814;SDS011;10568;48.176;16.316;2023-04-29T14:19:33;3.17;;;1.40;;
20814;SDS011;10568;48.176;16.316;2023-04-29T14:21:59;3.00;;;1.60;;
20814;SDS011;10568;48.176;16.316;2023-04-29T14:24:25;3.87;;;1.30;;
20814;SDS011;10568;48.176;16.316;2023-04-29T14:26:51;2.07;;;1.50;;
20814;SDS011;10568;48.176;16.316;2023-04-29T14:29:17;2.93;;;1.50;;
20814;SDS011;10568;48.176;16.316;2023-04-29T14:31:43;1.70;;;1.40;;
20814;SDS011;10568;48.176;16.316;2023-04-29T14:34:09;2.23;;;1.57;;
20814;SDS011;10568;48.176;16.316;2023-04-29T14:36:34;2.00;;;1.50;;
20814;SDS011;10568;48.176;16.316;2023-04-29T14:39:00;1.30;;;1.10;;
20814;SDS011;10568;48.176;16.316;2023-04-29T14:41:27;2.00;;;1.60;;
20814;SDS011;10568;48.176;16.316;2023-04-29T14:43:53;3.67;;;1.37;;
20814;SDS011;10568;48.176;16.316;2023-04-29T14:46:19;1.43;;;1.30;;
20814;SDS011;10568;48.176;16.316;2023-04-29T14:48:46;1.63;;;1.30;;
20814;SDS011;10568;48.176;16.316;2023-04-29T14:51:12;1.60;;;1.20;;
20814;SDS011;10568;48.176;16.316;2023-04-29T14:53:38;3.03;;;1.57;;
20814;SDS011;10568;48.176;16.316;2023-04-29T14:56:04;1.53;;;1.10;;
20814;SDS011;10568;48.176;16.316;2023-04-29T14:58:30;1.77;;;1.30;;
20814;SDS011;10568;48.176;16.316;2023-04-29T15:00:55;4.40;;;1.20;;
20814;SDS011;10568;48.176;16.316;2023-04-29T15:03:21;2.53;;;1.20;;
20814;SDS011;10568;48.176;16.316;2023-04-29T15:05:47;1.77;;;1.33;;